Legnica, Poland
Current Conditions -  °F | °C
As of 5:00 AM on Saturday 20 Dec 2014 (Local Time) from EPWR Reporting Station
Few Clouds Few Clouds  
Wind Chill: 36°   Ceiling: Unl
Heat Index: 43°   Visibility: 6mi
Dew Point: 34°   Wind: 14mph
Humidity: 70%   Direction: 270°W
Pressure: 29.94"   Gusts: NA
Location:  51.21°N, 16.16°E
Report Text: EPWR 200300Z 27012KT 9999 FEW036 06/01 Q1014
Loading
Personal Weather Stations






























Interactive Weather Map New forecast layout! Learn more

10-Day Weather Forecast

Advertisements
Track Severe Weather on mobile